createdAt,value
2018-07-11T00:01:36.014Z,7.47
2018-07-11T00:04:10.370Z,7.13
2018-07-11T00:06:42.810Z,5.80
2018-07-11T00:09:15.744Z,6.50
2018-07-11T00:14:44.757Z,8.60
2018-07-11T00:17:17.790Z,5.73
2018-07-11T00:19:51.209Z,6.27
2018-07-11T00:22:23.822Z,6.27
2018-07-11T00:24:56.261Z,8.30
2018-07-11T00:27:41.572Z,5.97
2018-07-11T00:30:19.068Z,5.70
2018-07-11T00:32:51.783Z,6.87
2018-07-11T00:35:24.738Z,7.37
2018-07-11T00:38:01.784Z,7.43
2018-07-11T00:40:36.955Z,6.30
2018-07-11T00:46:35.216Z,8.13
2018-07-11T00:52:46.589Z,9.00
2018-07-11T00:55:25.472Z,6.90
2018-07-11T00:57:59.792Z,6.77
2018-07-11T01:01:16.725Z,7.17
2018-07-11T01:03:57.324Z,8.57
2018-07-11T01:06:34.665Z,7.63
2018-07-11T01:09:07.668Z,7.20
2018-07-11T01:11:40.891Z,6.83
2018-07-11T01:14:30.626Z,6.70
2018-07-11T01:17:13.183Z,6.57
2018-07-11T01:19:56.205Z,7.03
2018-07-11T01:22:54.778Z,6.70
2018-07-11T01:25:26.889Z,7.73
2018-07-11T01:28:01.791Z,7.57
2018-07-11T01:30:34.640Z,8.00
2018-07-11T01:33:07.963Z,8.57
2018-07-11T01:35:42.213Z,7.90
2018-07-11T01:38:15.344Z,7.87
2018-07-11T01:40:47.485Z,7.87
2018-07-11T01:43:47.288Z,8.57
2018-07-11T01:46:30.780Z,8.47
2018-07-11T01:49:25.806Z,8.60
2018-07-11T01:52:07.188Z,8.20
2018-07-11T01:54:41.735Z,7.77
2018-07-11T01:57:15.636Z,7.60
2018-07-11T01:59:51.685Z,9.33
2018-07-11T02:02:30.710Z,8.23
2018-07-11T02:05:06.167Z,8.17
2018-07-11T02:16:43.252Z,7.37
2018-07-11T02:22:20.534Z,8.13
2018-07-11T02:25:07.740Z,7.20
2018-07-11T02:27:43.232Z,7.20
2018-07-11T02:30:33.833Z,9.07
2018-07-11T02:33:09.134Z,8.93
2018-07-11T02:38:24.743Z,7.47
2018-07-11T02:41:04.989Z,7.50
2018-07-11T02:43:39.690Z,8.90
2018-07-11T02:46:13.400Z,8.67
2018-07-11T02:51:57.952Z,7.93
2018-07-11T02:58:29.956Z,9.77
2018-07-11T03:01:04.410Z,8.87
2018-07-11T03:03:36.906Z,8.70
2018-07-11T03:06:11.233Z,8.90
2018-07-11T03:08:44.317Z,9.93
2018-07-11T03:11:17.962Z,10.80
2018-07-11T03:13:50.958Z,8.53
2018-07-11T03:19:06.381Z,8.57
2018-07-11T03:24:24.009Z,8.87
2018-07-11T03:26:58.809Z,8.50
2018-07-11T03:29:39.045Z,9.23
2018-07-11T03:32:15.545Z,7.93
2018-07-11T03:34:48.016Z,7.27
2018-07-11T03:37:20.624Z,7.13
2018-07-11T03:39:52.923Z,6.83
2018-07-11T03:42:26.803Z,7.77
2018-07-11T03:45:00.171Z,9.83
2018-07-11T03:47:32.660Z,10.83
2018-07-11T03:50:05.093Z,8.93
2018-07-11T03:52:38.350Z,9.60
2018-07-11T03:55:10.859Z,7.57
2018-07-11T03:57:44.868Z,8.50
2018-07-11T04:00:17.689Z,7.73
2018-07-11T04:02:51.031Z,7.70
2018-07-11T04:05:25.599Z,7.97
2018-07-11T04:08:02.945Z,6.87
2018-07-11T04:10:35.304Z,7.63
2018-07-11T04:13:11.789Z,8.33
2018-07-11T04:15:44.818Z,7.70
2018-07-11T04:18:20.796Z,7.40
2018-07-11T04:20:53.114Z,7.90
2018-07-11T04:23:25.955Z,7.50
2018-07-11T04:25:59.764Z,7.97
2018-07-11T04:28:34.105Z,7.93
2018-07-11T04:31:08.288Z,7.67
2018-07-11T04:33:41.044Z,7.57
2018-07-11T04:36:15.350Z,7.67
2018-07-11T04:38:50.074Z,8.70
2018-07-11T04:41:23.779Z,7.90
2018-07-11T04:43:56.992Z,8.47
2018-07-11T04:46:31.061Z,8.07
2018-07-11T04:49:08.954Z,8.93
2018-07-11T04:51:43.643Z,8.27
2018-07-11T04:54:16.691Z,8.90
2018-07-11T04:56:49.493Z,7.10
2018-07-11T04:59:23.472Z,7.63
2018-07-11T05:01:56.333Z,9.00
2018-07-11T05:04:29.639Z,8.20
2018-07-11T05:07:03.504Z,7.20
2018-07-11T05:09:37.461Z,7.67
2018-07-11T05:12:09.872Z,6.97
2018-07-11T05:14:42.446Z,7.77
2018-07-11T05:17:15.392Z,7.83
2018-07-11T05:19:49.268Z,7.70
2018-07-11T05:22:21.648Z,7.03
2018-07-11T05:24:54.680Z,8.07
2018-07-11T05:27:28.038Z,8.15
2018-07-11T05:30:00.936Z,6.67
2018-07-11T05:32:33.399Z,7.23
2018-07-11T05:35:05.742Z,9.67
2018-07-11T05:37:39.009Z,8.87
2018-07-11T05:40:11.537Z,7.77
2018-07-11T05:42:45.709Z,7.45
2018-07-11T05:45:18.294Z,8.17
2018-07-11T05:47:51.511Z,7.70
2018-07-11T05:50:26.784Z,7.70
2018-07-11T05:53:00.352Z,7.37
2018-07-11T05:55:33.483Z,8.97
2018-07-11T05:58:05.987Z,7.30
2018-07-11T06:00:39.004Z,7.57
2018-07-11T06:03:11.298Z,8.30
2018-07-11T06:05:44.344Z,8.30
2018-07-11T06:08:17.298Z,8.17
2018-07-11T06:10:50.236Z,9.20
2018-07-11T06:13:23.444Z,8.93
2018-07-11T06:15:56.470Z,8.40
2018-07-11T06:18:30.384Z,9.50
2018-07-11T06:21:03.857Z,9.83
2018-07-11T06:23:37.002Z,8.20
2018-07-11T06:26:10.451Z,8.90
2018-07-11T06:28:43.177Z,8.20
2018-07-11T06:31:16.442Z,9.40
2018-07-11T06:33:48.735Z,9.10
2018-07-11T06:36:21.419Z,9.27
2018-07-11T06:38:53.741Z,10.20
2018-07-11T06:41:26.291Z,9.93
2018-07-11T06:43:59.315Z,9.57
2018-07-11T06:46:32.597Z,9.83
2018-07-11T06:49:05.124Z,9.15
2018-07-11T06:51:37.695Z,8.60
2018-07-11T06:54:10.822Z,9.27
2018-07-11T06:56:44.837Z,9.80
2018-07-11T06:59:17.923Z,9.85
2018-07-11T07:01:50.347Z,9.10
2018-07-11T07:04:23.595Z,9.65
2018-07-11T07:06:57.722Z,9.40
2018-07-11T07:09:29.996Z,9.93
2018-07-11T07:12:02.678Z,10.00
2018-07-11T07:14:35.039Z,10.57
2018-07-11T07:17:07.410Z,10.97
2018-07-11T07:19:40.404Z,10.40
2018-07-11T07:22:13.234Z,10.97
2018-07-11T07:24:46.872Z,10.67
2018-07-11T07:27:19.421Z,10.40
2018-07-11T07:29:52.135Z,11.20
2018-07-11T07:32:26.422Z,10.70
2018-07-11T07:34:59.274Z,11.20
2018-07-11T07:37:31.711Z,11.93
2018-07-11T07:40:04.597Z,10.63
2018-07-11T07:42:37.049Z,9.97
2018-07-11T07:45:09.511Z,9.37
2018-07-11T07:47:45.892Z,10.33
2018-07-11T07:50:18.897Z,10.43
2018-07-11T07:53:16.544Z,11.50
2018-07-11T07:55:49.116Z,10.10
2018-07-11T07:58:21.818Z,9.80
2018-07-11T08:00:54.666Z,9.80
2018-07-11T08:03:27.417Z,10.95
2018-07-11T08:05:59.695Z,10.37
2018-07-11T08:08:32.056Z,9.30
2018-07-11T08:11:04.437Z,9.43
2018-07-11T08:13:36.921Z,10.95
2018-07-11T08:16:09.314Z,11.23
2018-07-11T08:18:41.805Z,9.60
2018-07-11T08:21:14.136Z,11.05
2018-07-11T08:23:55.832Z,9.87
2018-07-11T08:26:37.263Z,10.73
2018-07-11T08:31:46.432Z,10.37
2018-07-11T08:34:31.382Z,10.07
2018-07-11T08:37:21.789Z,10.97
2018-07-11T08:40:22.762Z,10.17
2018-07-11T08:45:13.283Z,10.97
2018-07-11T08:48:03.836Z,9.73
2018-07-11T08:52:49.177Z,10.60
2018-07-11T08:55:44.663Z,9.77
2018-07-11T08:58:35.153Z,9.45
2018-07-11T09:01:16.750Z,9.33
2018-07-11T09:04:08.948Z,9.67
2018-07-11T09:09:09.725Z,8.60
2018-07-11T09:11:54.208Z,8.77
2018-07-11T09:16:37.632Z,9.55
2018-07-11T09:21:27.950Z,8.80
2018-07-11T09:24:20.380Z,8.60
2018-07-11T09:26:53.223Z,8.57
2018-07-11T09:29:25.773Z,8.43
2018-07-11T09:31:59.248Z,8.17
2018-07-11T09:34:31.701Z,9.30
2018-07-11T09:37:07.861Z,11.13
2018-07-11T09:39:40.224Z,7.65
2018-07-11T09:42:13.099Z,8.50
2018-07-11T09:44:46.058Z,9.20
2018-07-11T09:47:22.965Z,8.90
2018-07-11T09:49:55.433Z,8.80
2018-07-11T09:52:27.766Z,9.40
2018-07-11T09:55:00.657Z,9.50
2018-07-11T09:57:37.458Z,10.67
2018-07-11T10:00:13.629Z,10.77
2018-07-11T10:02:46.139Z,9.75
2018-07-11T10:05:19.335Z,10.73
2018-07-11T10:07:52.218Z,9.63
2018-07-11T10:10:24.960Z,8.60
2018-07-11T10:12:57.297Z,11.35
2018-07-11T10:15:29.749Z,11.73
2018-07-11T10:18:05.843Z,11.20
2018-07-11T10:20:39.726Z,11.20
2018-07-11T10:23:13.116Z,11.50
2018-07-11T10:25:46.350Z,12.17
2018-07-11T10:28:21.530Z,11.47
2018-07-11T10:30:54.471Z,10.80
2018-07-11T10:33:27.296Z,10.50
2018-07-11T10:35:59.913Z,13.00
2018-07-11T10:38:58.992Z,11.67
2018-07-11T10:41:31.393Z,11.65
2018-07-11T10:44:03.709Z,12.40
2018-07-11T10:46:36.305Z,12.40
2018-07-11T10:49:09.354Z,11.50
2018-07-11T10:51:41.765Z,11.90
2018-07-11T10:54:14.217Z,14.10
2018-07-11T10:56:47.835Z,14.25
2018-07-11T10:59:21.751Z,11.33
2018-07-11T11:01:55.318Z,11.23
2018-07-11T11:04:32.343Z,11.35
2018-07-11T11:07:05.754Z,12.20
2018-07-11T11:09:38.660Z,13.13
2018-07-11T11:12:11.846Z,12.60
2018-07-11T11:14:45.479Z,12.45
2018-07-11T11:17:19.728Z,12.75
2018-07-11T11:20:00.463Z,12.00
2018-07-11T11:22:34.424Z,13.70
2018-07-11T11:25:07.572Z,14.70
2018-07-11T11:27:41.259Z,11.45
2018-07-11T11:30:13.707Z,11.57
2018-07-11T11:32:46.570Z,12.70
2018-07-11T11:35:19.526Z,13.70
2018-07-11T11:37:52.248Z,14.80
2018-07-11T11:40:29.884Z,14.07
2018-07-11T11:43:03.269Z,15.50
2018-07-11T11:45:38.059Z,16.43
2018-07-11T11:48:11.356Z,16.10
2018-07-11T11:50:44.162Z,16.00
2018-07-11T11:53:18.075Z,15.80
2018-07-11T11:55:51.792Z,16.20
2018-07-11T11:58:24.342Z,16.40
2018-07-11T12:01:05.120Z,17.80
2018-07-11T13:58:26.739Z,10.93
2018-07-11T14:33:07.456Z,14.40
2018-07-11T14:45:13.832Z,11.13
2018-07-11T14:47:51.273Z,10.97
2018-07-11T14:50:25.767Z,9.97
2018-07-11T14:52:59.777Z,10.13
2018-07-11T14:55:48.634Z,8.47
2018-07-11T14:58:22.467Z,9.40
2018-07-11T15:00:55.673Z,10.47
2018-07-11T15:03:29.102Z,9.40
2018-07-11T15:06:10.400Z,12.13
2018-07-11T15:08:52.768Z,10.77
2018-07-11T15:11:51.169Z,8.50
2018-07-11T15:14:32.779Z,10.67
2018-07-11T15:17:35.068Z,10.20
2018-07-11T15:23:20.838Z,9.70
2018-07-11T15:26:28.424Z,13.83
2018-07-11T15:29:12.614Z,10.00
2018-07-11T15:32:03.941Z,9.50
2018-07-11T15:34:43.868Z,10.17
2018-07-11T15:37:18.579Z,10.07
2018-07-11T15:40:01.910Z,8.17
2018-07-11T15:42:40.339Z,10.20
2018-07-11T15:45:16.209Z,10.97
2018-07-11T15:47:50.658Z,9.63
2018-07-11T15:50:28.234Z,9.30
2018-07-11T15:53:01.141Z,10.50
2018-07-11T15:55:38.987Z,8.17
2018-07-11T15:58:19.551Z,11.93
2018-07-11T16:00:52.472Z,9.87
2018-07-11T16:03:26.476Z,8.63
2018-07-11T16:06:13.528Z,7.20
2018-07-11T16:08:53.697Z,7.40
2018-07-11T16:11:28.364Z,8.67
2018-07-11T16:14:01.784Z,7.93
2018-07-11T16:16:35.222Z,9.87
2018-07-11T16:19:10.265Z,10.77
2018-07-11T16:21:46.224Z,8.47
2018-07-11T16:24:24.458Z,12.07
2018-07-11T16:27:35.134Z,13.83
2018-07-11T16:30:13.991Z,7.60
2018-07-11T16:32:51.362Z,12.40
2018-07-11T16:35:27.141Z,8.97
2018-07-11T16:38:02.017Z,7.93
2018-07-11T16:40:35.727Z,9.77
2018-07-11T16:43:11.807Z,7.33
2018-07-11T16:45:46.566Z,8.50
2018-07-11T16:48:21.935Z,11.13
2018-07-11T16:51:00.286Z,7.40
2018-07-11T16:53:34.641Z,8.33
2018-07-11T16:56:08.721Z,10.90
2018-07-11T17:02:15.988Z,9.47
2018-07-11T17:09:32.119Z,8.60
2018-07-11T17:12:13.058Z,9.20
2018-07-11T17:21:50.412Z,8.37
2018-07-11T17:24:41.776Z,7.90
2018-07-11T17:27:35.293Z,7.97
2018-07-11T17:30:08.997Z,6.93
2018-07-11T17:32:43.593Z,9.37
2018-07-11T17:35:18.669Z,7.67
2018-07-11T17:37:55.960Z,6.90
2018-07-11T17:40:30.668Z,7.23
2018-07-11T17:43:10.597Z,11.43
2018-07-11T17:45:44.861Z,7.43
2018-07-11T17:49:32.130Z,7.60
2018-07-11T17:52:12.536Z,8.57
2018-07-11T17:55:19.282Z,10.13
2018-07-11T17:58:01.924Z,8.00
2018-07-11T18:01:01.027Z,7.67
2018-07-11T18:03:41.433Z,7.43
2018-07-11T18:07:25.563Z,9.90
2018-07-11T18:10:15.824Z,9.97
2018-07-11T18:12:56.879Z,11.67
2018-07-11T18:15:39.678Z,9.67
2018-07-11T18:20:27.234Z,10.93
2018-07-11T18:23:16.507Z,8.97
2018-07-11T18:26:04.617Z,9.03
2018-07-11T18:28:48.961Z,6.60
2018-07-11T18:31:35.602Z,6.10
2018-07-11T18:36:24.636Z,7.43
2018-07-11T18:39:16.971Z,6.77
2018-07-11T18:57:29.501Z,7.83
2018-07-11T19:26:12.100Z,6.90
2018-07-11T19:47:55.051Z,6.43
2018-07-11T19:53:40.137Z,4.63
2018-07-11T19:56:32.049Z,7.47
2018-07-11T20:14:31.999Z,5.93
2018-07-11T20:27:21.899Z,7.60
2018-07-11T20:33:29.929Z,7.13
2018-07-11T20:39:25.481Z,4.77
2018-07-11T20:42:20.414Z,4.83
2018-07-11T20:44:54.382Z,10.17
2018-07-11T20:47:29.974Z,6.53
2018-07-11T20:50:03.745Z,10.37
2018-07-11T20:52:42.509Z,5.33
2018-07-11T20:55:26.300Z,5.97
2018-07-11T21:00:15.699Z,4.47
2018-07-11T21:03:06.805Z,6.57
2018-07-11T21:07:51.270Z,7.70
2018-07-11T21:12:39.561Z,5.23
2018-07-11T21:15:45.232Z,5.43
2018-07-11T21:19:24.038Z,5.43
2018-07-11T21:22:06.731Z,5.20
2018-07-11T21:24:43.966Z,5.57
2018-07-11T21:27:31.878Z,6.90
2018-07-11T21:30:12.541Z,7.87
2018-07-11T21:32:54.457Z,5.10
2018-07-11T21:35:29.438Z,5.37
2018-07-11T21:38:02.415Z,4.60
2018-07-11T21:40:37.159Z,6.47
2018-07-11T21:43:11.720Z,8.67
2018-07-11T21:45:47.325Z,5.20
2018-07-11T21:48:24.294Z,6.20
2018-07-11T21:50:58.829Z,6.43
2018-07-11T21:53:32.393Z,7.60
2018-07-11T21:56:07.867Z,7.70
2018-07-11T21:58:50.968Z,6.77
2018-07-11T22:01:24.453Z,7.13
2018-07-11T22:03:57.450Z,5.23
2018-07-11T22:06:31.648Z,5.37
2018-07-11T22:09:06.073Z,5.30
2018-07-11T22:11:39.986Z,5.80
2018-07-11T22:14:13.392Z,5.60
2018-07-11T22:16:45.987Z,4.50
2018-07-11T22:19:48.901Z,4.80
2018-07-11T22:22:23.695Z,7.47
2018-07-11T22:24:54.712Z,7.70
2018-07-11T22:27:53.681Z,7.57
2018-07-11T22:30:27.574Z,5.03
2018-07-11T22:32:57.371Z,10.40
2018-07-11T22:35:29.990Z,6.80
2018-07-11T22:37:59.714Z,5.80
2018-07-11T22:40:30.467Z,8.47
2018-07-11T22:43:01.110Z,5.90
2018-07-11T22:45:30.983Z,5.93
2018-07-11T22:48:01.844Z,5.83
2018-07-11T22:50:32.133Z,6.70
2018-07-11T22:53:08.879Z,6.13
2018-07-11T22:55:46.786Z,6.73
2018-07-11T22:58:18.735Z,6.57
2018-07-11T23:00:48.577Z,7.93
2018-07-11T23:03:19.793Z,7.20
2018-07-11T23:06:02.648Z,10.63
2018-07-11T23:08:33.995Z,8.20
2018-07-11T23:11:03.691Z,8.17
2018-07-11T23:13:34.561Z,7.20
2018-07-11T23:16:11.753Z,8.27
2018-07-11T23:19:04.768Z,10.43
2018-07-11T23:21:46.573Z,8.10
2018-07-11T23:24:16.359Z,7.83
2018-07-11T23:26:55.209Z,7.50
2018-07-11T23:29:25.862Z,7.53
2018-07-11T23:32:07.890Z,7.33
2018-07-11T23:34:44.978Z,10.23
2018-07-11T23:40:21.988Z,7.33
2018-07-11T23:45:36.823Z,10.63
2018-07-11T23:48:15.405Z,10.20
2018-07-11T23:51:02.515Z,7.80
